Time;durP1;ratioP1;P1;durP2;ratioP2;P2;SDS_P1;SDS_P2;PMS_P1;PMS_P2;Temp;Humidity;BMP_temperature;BMP_pressure;BME280_temperature;BME280_humidity;BME280_pressure;Samples;Min_cycle;Max_cycle;Signal;HPM_P1;HPM_P2
2022/08/19 00:00:42;;;;;;;9.13;8.52;;;;;;;;;;5103065;28;20468;-66
2022/08/19 00:03:09;;;;;;;8.65;8.05;;;;;;;;;;5103268;28;20199;-66
2022/08/19 00:05:37;;;;;;;8.43;7.93;;;;;;;;;;5103285;28;20207;-66
2022/08/19 00:08:05;;;;;;;9.18;8.48;;;;;;;;;;5109012;28;20221;-66
2022/08/19 00:10:33;;;;;;;8.70;8.10;;;;;;;;;;5123402;28;20579;-66
2022/08/19 00:13:01;;;;;;;8.45;7.88;;;;;;;;;;5123832;28;20210;-66
2022/08/19 00:15:28;;;;;;;9.02;8.43;;;;;;;;;;5123191;28;20226;-66
2022/08/19 00:17:57;;;;;;;8.50;7.95;;;;;;;;;;5123363;28;20213;-66
2022/08/19 00:20:24;;;;;;;8.65;8.05;;;;;;;;;;5123749;28;20567;-66
2022/08/19 00:22:52;;;;;;;8.38;7.88;;;;;;;;;;5124144;28;20203;-66
2022/08/19 00:25:19;;;;;;;9.27;8.68;;;;;;;;;;5123998;28;20271;-66
2022/08/19 00:27:47;;;;;;;8.90;8.30;;;;;;;;;;5123840;28;20210;-66
2022/08/19 00:30:14;;;;;;;8.98;8.38;;;;;;;;;;5124064;27;20229;-66
2022/08/19 00:32:42;;;;;;;8.32;7.72;;;;;;;;;;5123558;28;20267;-66
2022/08/19 00:35:11;;;;;;;8.40;7.80;;;;;;;;;;5121847;28;20219;-66
2022/08/19 00:37:40;;;;;;;8.68;8.07;;;;;;;;;;5115878;28;20199;-66
2022/08/19 00:40:09;;;;;;;8.30;7.80;;;;;;;;;;5103339;28;20204;-66
2022/08/19 00:42:37;;;;;;;7.65;7.15;;;;;;;;;;5102655;28;20214;-66
2022/08/19 00:45:10;;;;;;;8.05;7.55;;;;;;;;;;5102992;28;20226;-66
2022/08/19 00:47:37;;;;;;;8.40;7.80;;;;;;;;;;5102878;28;20211;-66
2022/08/19 00:50:06;;;;;;;8.60;7.90;;;;;;;;;;5103029;28;20233;-66
2022/08/19 00:52:36;;;;;;;8.18;7.63;;;;;;;;;;5098951;28;20214;-66
2022/08/19 00:55:05;;;;;;;8.00;7.50;;;;;;;;;;5099699;28;20231;-66
2022/08/19 00:57:36;;;;;;;8.57;7.90;;;;;;;;;;5099780;28;20195;-66
2022/08/19 01:00:08;;;;;;;8.30;7.70;;;;;;;;;;5099714;28;20595;-66
2022/08/19 01:02:35;;;;;;;7.80;7.30;;;;;;;;;;5100028;28;20238;-66
2022/08/19 01:05:04;;;;;;;7.80;7.20;;;;;;;;;;5099874;28;20261;-66
2022/08/19 01:07:31;;;;;;;8.20;7.60;;;;;;;;;;5099955;28;20280;-66
2022/08/19 01:10:01;;;;;;;8.38;7.78;;;;;;;;;;5100516;28;20204;-66
2022/08/19 01:12:28;;;;;;;8.13;7.53;;;;;;;;;;5100946;28;20284;-66
2022/08/19 01:14:57;;;;;;;7.70;7.20;;;;;;;;;;5100567;28;20235;-66
2022/08/19 01:17:24;;;;;;;8.05;7.55;;;;;;;;;;5099574;28;20212;-66
2022/08/19 01:19:51;;;;;;;7.80;7.30;;;;;;;;;;5099913;28;20211;-66
2022/08/19 01:22:23;;;;;;;7.60;7.10;;;;;;;;;;5100205;28;20204;-66
2022/08/19 01:24:52;;;;;;;7.90;7.40;;;;;;;;;;5100022;28;20516;-66
2022/08/19 01:27:20;;;;;;;8.02;7.35;;;;;;;;;;5100104;28;20276;-66
2022/08/19 01:29:48;;;;;;;7.97;7.47;;;;;;;;;;5099342;28;20330;-66
2022/08/19 01:32:16;;;;;;;7.13;6.72;;;;;;;;;;5117269;28;20199;-66
2022/08/19 01:34:46;;;;;;;7.72;7.22;;;;;;;;;;5119845;28;20250;-66
2022/08/19 01:37:14;;;;;;;7.30;6.80;;;;;;;;;;5120285;28;20225;-66
2022/08/19 01:39:42;;;;;;;7.85;7.35;;;;;;;;;;5119634;28;20214;-66
2022/08/19 01:42:12;;;;;;;7.75;7.25;;;;;;;;;;5119983;28;20211;-66
2022/08/19 01:44:40;;;;;;;6.97;6.47;;;;;;;;;;5119893;28;20206;-67
2022/08/19 01:47:08;;;;;;;7.43;6.93;;;;;;;;;;5119648;28;20203;-66
2022/08/19 01:49:36;;;;;;;7.60;7.10;;;;;;;;;;5119441;28;20202;-66
2022/08/19 01:52:04;;;;;;;7.20;6.70;;;;;;;;;;5119452;28;20209;-66
2022/08/19 01:54:31;;;;;;;7.40;6.90;;;;;;;;;;5119188;28;20263;-66
2022/08/19 01:57:01;;;;;;;7.20;6.70;;;;;;;;;;5119384;28;20210;-66
2022/08/19 01:59:30;;;;;;;7.28;6.78;;;;;;;;;;5118784;28;20199;-66
2022/08/19 02:01:57;;;;;;;7.20;6.70;;;;;;;;;;5119559;28;20278;-66
2022/08/19 02:04:25;;;;;;;7.57;7.07;;;;;;;;;;5119440;28;20210;-66
2022/08/19 02:06:52;;;;;;;7.30;6.80;;;;;;;;;;5118991;28;20439;-66
2022/08/19 02:09:20;;;;;;;7.00;6.50;;;;;;;;;;5119063;28;20210;-66
2022/08/19 02:11:47;;;;;;;7.25;6.85;;;;;;;;;;5119013;28;20256;-66
2022/08/19 02:14:15;;;;;;;7.28;6.78;;;;;;;;;;5118261;28;20231;-66
2022/08/19 02:16:43;;;;;;;7.10;6.60;;;;;;;;;;5118930;28;20321;-66
2022/08/19 02:19:11;;;;;;;6.93;6.43;;;;;;;;;;5119133;28;20210;-66
2022/08/19 02:21:38;;;;;;;7.30;6.80;;;;;;;;;;5118978;28;20203;-66
2022/08/19 02:24:06;;;;;;;7.45;6.95;;;;;;;;;;5118663;28;20203;-66
2022/08/19 02:26:33;;;;;;;7.68;7.07;;;;;;;;;;5119257;28;20203;-66
2022/08/19 02:29:01;;;;;;;7.00;6.60;;;;;;;;;;5118671;28;20247;-65
2022/08/19 02:31:29;;;;;;;7.60;7.10;;;;;;;;;;5119047;28;20290;-65
2022/08/19 02:33:58;;;;;;;6.75;6.25;;;;;;;;;;5118967;28;20203;-66
2022/08/19 02:36:26;;;;;;;7.30;6.80;;;;;;;;;;5118417;28;20241;-66
2022/08/19 02:38:53;;;;;;;7.25;6.75;;;;;;;;;;5118254;28;20293;-65
2022/08/19 02:41:21;;;;;;;7.57;7.07;;;;;;;;;;5134947;27;20206;-66
2022/08/19 02:43:48;;;;;;;7.65;7.15;;;;;;;;;;5138918;27;20202;-66
2022/08/19 02:46:20;;;;;;;7.53;7.03;;;;;;;;;;5138839;27;20504;-66
2022/08/19 02:48:48;;;;;;;6.80;6.40;;;;;;;;;;5138785;27;20228;-66
2022/08/19 02:51:19;;;;;;;7.38;6.88;;;;;;;;;;5138414;27;20198;-66
2022/08/19 02:53:46;;;;;;;7.13;6.63;;;;;;;;;;5138560;27;20198;-65
2022/08/19 02:56:14;;;;;;;7.55;7.05;;;;;;;;;;5138684;27;20248;-66
2022/08/19 02:58:42;;;;;;;7.30;6.80;;;;;;;;;;5125755;27;20205;-66
2022/08/19 03:01:10;;;;;;;6.95;6.53;;;;;;;;;;5118357;28;20557;-65
2022/08/19 03:03:38;;;;;;;7.68;7.18;;;;;;;;;;5132851;27;20240;-66
2022/08/19 03:06:10;;;;;;;7.32;6.82;;;;;;;;;;5138197;27;20590;-65
2022/08/19 03:08:39;;;;;;;7.15;6.68;;;;;;;;;;5138816;27;20224;-66
2022/08/19 03:11:06;;;;;;;7.65;7.15;;;;;;;;;;5138426;27;20545;-66
2022/08/19 03:13:33;;;;;;;7.53;7.03;;;;;;;;;;5137795;27;20255;-66
2022/08/19 03:16:01;;;;;;;7.30;6.80;;;;;;;;;;5138216;27;20290;-66
2022/08/19 03:18:28;;;;;;;6.97;6.47;;;;;;;;;;5138118;27;20586;-66
2022/08/19 03:20:55;;;;;;;7.03;6.60;;;;;;;;;;5137811;27;20214;-66
2022/08/19 03:23:23;;;;;;;7.40;6.90;;;;;;;;;;5138403;27;20202;-66
2022/08/19 03:25:53;;;;;;;7.15;6.65;;;;;;;;;;5135743;27;20479;-66
2022/08/19 03:28:21;;;;;;;6.90;6.50;;;;;;;;;;5137462;27;20575;-66
2022/08/19 03:30:57;;;;;;;6.90;6.50;;;;;;;;;;5117702;28;20202;-65
2022/08/19 03:33:27;;;;;;;7.28;6.78;;;;;;;;;;5118027;28;20277;-66
2022/08/19 03:36:05;;;;;;;7.10;6.60;;;;;;;;;;5117222;28;20733;-66
2022/08/19 03:38:33;;;;;;;7.40;6.90;;;;;;;;;;5117265;28;20210;-66
2022/08/19 03:41:06;;;;;;;7.53;7.03;;;;;;;;;;5117399;28;20690;-66
2022/08/19 03:43:34;;;;;;;7.20;6.70;;;;;;;;;;5117486;28;20218;-66
2022/08/19 03:46:04;;;;;;;7.50;7.00;;;;;;;;;;5116881;28;20268;-66
2022/08/19 03:48:32;;;;;;;7.32;6.82;;;;;;;;;;5117304;28;20257;-66
2022/08/19 03:50:59;;;;;;;6.82;6.32;;;;;;;;;;5117268;28;20648;-66
2022/08/19 03:53:27;;;;;;;7.35;6.85;;;;;;;;;;5106023;28;20207;-65
2022/08/19 03:55:55;;;;;;;7.57;7.07;;;;;;;;;;5096509;28;20497;-65
2022/08/19 03:58:24;;;;;;;7.80;7.20;;;;;;;;;;5096481;28;20203;-65
2022/08/19 04:00:51;;;;;;;7.25;6.75;;;;;;;;;;5096489;28;20211;-66
2022/08/19 04:03:19;;;;;;;7.47;6.97;;;;;;;;;;5096440;28;20276;-66
2022/08/19 04:05:47;;;;;;;7.70;7.20;;;;;;;;;;5096566;28;20210;-66
2022/08/19 04:08:19;;;;;;;7.40;6.90;;;;;;;;;;5096274;28;20216;-65
2022/08/19 04:10:46;;;;;;;7.18;6.68;;;;;;;;;;5096868;28;20210;-66
2022/08/19 04:13:14;;;;;;;7.50;7.00;;;;;;;;;;5096502;28;20270;-66
2022/08/19 04:15:43;;;;;;;7.45;6.95;;;;;;;;;;5096428;28;20236;-66
2022/08/19 04:18:11;;;;;;;7.10;6.60;;;;;;;;;;5096364;28;20203;-65
2022/08/19 04:20:45;;;;;;;7.25;6.85;;;;;;;;;;5097477;28;20207;-66
2022/08/19 04:23:12;;;;;;;7.40;6.90;;;;;;;;;;5096447;28;20203;-65
2022/08/19 04:25:41;;;;;;;7.88;7.38;;;;;;;;;;5096322;28;20587;-65
2022/08/19 04:28:09;;;;;;;7.53;7.03;;;;;;;;;;5099242;28;20284;-65
2022/08/19 04:30:40;;;;;;;7.53;7.03;;;;;;;;;;5119641;28;20333;-65
2022/08/19 04:33:09;;;;;;;7.50;7.00;;;;;;;;;;5120489;28;20260;-66
2022/08/19 04:35:38;;;;;;;7.40;6.90;;;;;;;;;;5120096;28;20287;-66
2022/08/19 04:38:06;;;;;;;7.75;7.25;;;;;;;;;;5120458;28;20559;-65
2022/08/19 04:43:18;;;;;;;7.22;6.72;;;;;;;;;;5120494;28;20213;-66
2022/08/19 04:45:46;;;;;;;7.40;6.90;;;;;;;;;;5119937;28;20267;-65
2022/08/19 04:48:15;;;;;;;7.60;7.10;;;;;;;;;;5119993;28;20207;-66
2022/08/19 04:50:45;;;;;;;7.35;6.85;;;;;;;;;;5119670;28;20211;-66
2022/08/19 04:53:12;;;;;;;7.57;7.07;;;;;;;;;;5120415;28;20203;-66
2022/08/19 04:55:40;;;;;;;7.25;6.75;;;;;;;;;;5119896;28;20227;-67
2022/08/19 04:58:07;;;;;;;7.32;6.80;;;;;;;;;;5119168;28;20195;-66
2022/08/19 05:00:35;;;;;;;7.47;6.97;;;;;;;;;;5119272;28;20271;-65
2022/08/19 05:03:02;;;;;;;7.38;6.88;;;;;;;;;;5118942;28;20524;-65
2022/08/19 05:05:32;;;;;;;7.45;6.95;;;;;;;;;;5119458;28;20509;-66
2022/08/19 05:07:59;;;;;;;6.95;6.45;;;;;;;;;;5119180;28;20252;-66
2022/08/19 05:10:26;;;;;;;7.32;6.82;;;;;;;;;;5119307;28;20206;-66
2022/08/19 05:12:54;;;;;;;7.22;6.72;;;;;;;;;;5119332;28;20199;-66
2022/08/19 05:15:21;;;;;;;7.65;7.15;;;;;;;;;;5119011;28;20629;-66
2022/08/19 05:23:16;;;;;;;7.10;6.60;;;;;;;;;;5119064;28;20268;-66
2022/08/19 05:25:44;;;;;;;7.15;6.65;;;;;;;;;;5118871;28;20235;-66
2022/08/19 05:28:11;;;;;;;7.10;6.60;;;;;;;;;;5118601;28;20285;-66
2022/08/19 05:30:40;;;;;;;7.00;6.60;;;;;;;;;;5119106;28;20246;-66
2022/08/19 05:33:09;;;;;;;7.07;6.57;;;;;;;;;;5118512;28;20203;-65
2022/08/19 05:35:40;;;;;;;6.60;6.20;;;;;;;;;;5118296;28;20611;-66
2022/08/19 05:38:08;;;;;;;7.00;6.50;;;;;;;;;;5117609;28;20214;-66
2022/08/19 05:40:35;;;;;;;6.80;6.40;;;;;;;;;;5118619;28;20274;-66
2022/08/19 05:43:03;;;;;;;6.40;5.90;;;;;;;;;;5116558;28;20282;-65
2022/08/19 05:45:30;;;;;;;6.63;6.20;;;;;;;;;;5118588;28;20203;-65
2022/08/19 05:47:58;;;;;;;6.38;5.97;;;;;;;;;;5118460;28;20306;-65
2022/08/19 05:50:26;;;;;;;7.00;6.50;;;;;;;;;;5118759;28;20199;-65
2022/08/19 05:52:54;;;;;;;6.38;5.97;;;;;;;;;;5117951;28;20262;-65
2022/08/19 05:55:22;;;;;;;6.53;6.13;;;;;;;;;;5117976;28;20203;-65
2022/08/19 05:57:50;;;;;;;6.80;6.40;;;;;;;;;;5118221;28;20223;-66
2022/08/19 06:00:17;;;;;;;6.80;6.40;;;;;;;;;;5117801;28;20211;-66
2022/08/19 06:02:44;;;;;;;6.43;6.03;;;;;;;;;;5117187;28;20744;-66
2022/08/19 06:05:12;;;;;;;6.78;6.38;;;;;;;;;;5117008;28;20268;-66
2022/08/19 06:07:40;;;;;;;6.90;6.40;;;;;;;;;;5117098;28;20237;-66
2022/08/19 06:10:11;;;;;;;6.80;6.40;;;;;;;;;;5107882;28;20203;-66
2022/08/19 06:12:38;;;;;;;6.70;6.30;;;;;;;;;;5097515;28;20211;-65
2022/08/19 06:15:07;;;;;;;6.53;6.13;;;;;;;;;;5096951;28;20671;-66
2022/08/19 06:17:35;;;;;;;6.82;6.43;;;;;;;;;;5097054;28;20243;-66
2022/08/19 06:20:03;;;;;;;7.18;6.68;;;;;;;;;;5096831;28;20230;-66
2022/08/19 06:22:31;;;;;;;6.50;6.10;;;;;;;;;;5097463;28;20502;-66
2022/08/19 06:24:59;;;;;;;7.05;6.55;;;;;;;;;;5098660;28;20294;-66
2022/08/19 06:27:29;;;;;;;7.07;6.57;;;;;;;;;;5096249;28;20200;-65
2022/08/19 06:29:56;;;;;;;6.60;6.20;;;;;;;;;;5110251;28;20223;-66
2022/08/19 06:32:23;;;;;;;6.75;6.32;;;;;;;;;;5115970;28;20203;-65
2022/08/19 06:34:51;;;;;;;6.47;6.07;;;;;;;;;;5116164;28;20210;-66
2022/08/19 06:37:18;;;;;;;6.40;6.00;;;;;;;;;;5115788;28;20246;-66
2022/08/19 06:39:46;;;;;;;6.93;6.43;;;;;;;;;;5115677;28;20206;-65
2022/08/19 06:42:16;;;;;;;6.50;6.10;;;;;;;;;;5115754;28;20326;-66
2022/08/19 06:44:45;;;;;;;6.90;6.40;;;;;;;;;;5115484;28;20202;-65
2022/08/19 06:47:15;;;;;;;7.20;6.70;;;;;;;;;;5116273;28;20210;-66
2022/08/19 06:49:43;;;;;;;6.53;6.13;;;;;;;;;;5114599;28;20213;-66
2022/08/19 06:52:11;;;;;;;6.90;6.40;;;;;;;;;;5116202;28;20199;-66
2022/08/19 06:54:39;;;;;;;6.40;6.00;;;;;;;;;;5116161;28;20536;-65
2022/08/19 06:57:08;;;;;;;7.05;6.55;;;;;;;;;;5115679;28;20223;-65
2022/08/19 06:59:36;;;;;;;7.25;6.75;;;;;;;;;;5115928;28;20203;-66
2022/08/19 07:02:06;;;;;;;6.75;6.25;;;;;;;;;;5115274;28;20453;-66
2022/08/19 07:04:34;;;;;;;7.05;6.55;;;;;;;;;;5114946;28;20199;-66
2022/08/19 07:07:03;;;;;;;6.93;6.43;;;;;;;;;;5115104;28;20218;-66
2022/08/19 07:09:30;;;;;;;6.93;6.43;;;;;;;;;;5116168;28;20211;-66
2022/08/19 07:11:58;;;;;;;7.07;6.57;;;;;;;;;;5115720;28;20495;-66
2022/08/19 07:14:26;;;;;;;6.93;6.53;;;;;;;;;;5115195;28;20207;-66
2022/08/19 07:16:55;;;;;;;6.78;6.38;;;;;;;;;;5114611;28;20225;-66
2022/08/19 07:19:25;;;;;;;7.18;6.68;;;;;;;;;;5114144;28;20212;-66
2022/08/19 07:21:53;;;;;;;6.40;6.00;;;;;;;;;;5113259;28;20199;-66
2022/08/19 07:24:23;;;;;;;6.38;5.97;;;;;;;;;;5114271;28;20297;-66
2022/08/19 07:26:50;;;;;;;6.53;6.13;;;;;;;;;;5114630;28;20248;-66
2022/08/19 07:29:18;;;;;;;7.13;6.63;;;;;;;;;;5114006;28;20243;-66
2022/08/19 07:31:45;;;;;;;6.85;6.35;;;;;;;;;;5115181;28;20202;-66
2022/08/19 07:34:14;;;;;;;6.65;6.25;;;;;;;;;;5114787;28;20254;-65
2022/08/19 07:36:43;;;;;;;6.43;6.03;;;;;;;;;;5115829;28;20491;-65
2022/08/19 07:39:12;;;;;;;6.38;5.97;;;;;;;;;;5115748;28;20210;-65
2022/08/19 07:41:39;;;;;;;6.18;5.78;;;;;;;;;;5115078;28;20247;-65
2022/08/19 07:44:08;;;;;;;6.53;6.13;;;;;;;;;;5114953;28;20264;-66
2022/08/19 07:46:37;;;;;;;6.68;6.28;;;;;;;;;;5115398;28;20264;-66
2022/08/19 07:49:05;;;;;;;6.32;5.93;;;;;;;;;;5116277;28;20478;-66
2022/08/19 07:51:32;;;;;;;6.70;6.30;;;;;;;;;;5115169;28;20210;-65
2022/08/19 07:54:01;;;;;;;6.72;6.22;;;;;;;;;;5115253;28;20203;-66
2022/08/19 07:56:29;;;;;;;6.28;5.80;;;;;;;;;;5114370;28;20259;-65
2022/08/19 07:58:56;;;;;;;6.28;5.88;;;;;;;;;;5115469;28;20583;-66
2022/08/19 08:01:25;;;;;;;6.40;6.00;;;;;;;;;;5116993;28;20271;-65
2022/08/19 08:09:25;;;;;;;6.50;6.03;;;;;;;;;;5118313;28;20191;-66
2022/08/19 08:11:54;;;;;;;6.38;5.97;;;;;;;;;;5118531;28;20203;-66
2022/08/19 08:14:23;;;;;;;6.60;6.20;;;;;;;;;;5119124;28;20263;-66
2022/08/19 08:16:51;;;;;;;6.95;6.45;;;;;;;;;;5118004;28;20222;-66
2022/08/19 08:19:19;;;;;;;6.82;6.32;;;;;;;;;;5118955;28;20211;-66
2022/08/19 08:21:47;;;;;;;6.82;6.40;;;;;;;;;;5118254;28;20210;-66
2022/08/19 08:24:15;;;;;;;6.50;6.10;;;;;;;;;;5118938;28;20203;-66
2022/08/19 08:26:44;;;;;;;6.70;6.20;;;;;;;;;;5118603;28;20613;-66
2022/08/19 08:29:12;;;;;;;6.20;5.70;;;;;;;;;;5118473;28;20231;-66
2022/08/19 08:31:39;;;;;;;6.70;6.20;;;;;;;;;;5118039;28;20263;-66
2022/08/19 08:34:07;;;;;;;6.45;5.97;;;;;;;;;;5116923;28;20260;-66
2022/08/19 08:36:37;;;;;;;6.45;6.05;;;;;;;;;;5117380;28;20664;-66
2022/08/19 08:39:05;;;;;;;6.60;6.13;;;;;;;;;;5117824;28;20215;-66
2022/08/19 08:41:36;;;;;;;6.55;6.15;;;;;;;;;;5117454;28;20195;-66
2022/08/19 08:44:05;;;;;;;6.63;6.22;;;;;;;;;;5118132;28;20203;-66
2022/08/19 08:46:38;;;;;;;6.90;6.40;;;;;;;;;;5118349;28;20245;-66
2022/08/19 08:49:08;;;;;;;6.22;5.82;;;;;;;;;;5117485;28;20603;-66
2022/08/19 08:51:39;;;;;;;6.90;6.40;;;;;;;;;;5117366;28;20210;-66
2022/08/19 08:54:07;;;;;;;6.60;6.10;;;;;;;;;;5115526;28;20202;-66
2022/08/19 08:56:35;;;;;;;7.18;6.57;;;;;;;;;;5105728;28;20195;-66
2022/08/19 08:59:07;;;;;;;6.82;6.32;;;;;;;;;;5097427;28;20204;-66
2022/08/19 09:01:35;;;;;;;6.60;6.15;;;;;;;;;;5110213;28;20207;-66
2022/08/19 09:04:04;;;;;;;7.13;6.63;;;;;;;;;;5117022;28;20207;-66
2022/08/19 09:06:36;;;;;;;7.15;6.65;;;;;;;;;;5117643;28;20306;-66
2022/08/19 09:09:06;;;;;;;7.07;6.57;;;;;;;;;;5117438;28;20251;-66
2022/08/19 09:11:42;;;;;;;7.03;6.53;;;;;;;;;;5116960;28;20268;-66
2022/08/19 09:14:13;;;;;;;7.85;7.25;;;;;;;;;;5115645;28;20211;-66
2022/08/19 09:16:43;;;;;;;7.40;6.90;;;;;;;;;;5116488;28;20286;-66
2022/08/19 09:19:12;;;;;;;7.80;7.20;;;;;;;;;;5116378;28;20203;-66
2022/08/19 09:21:40;;;;;;;7.78;7.00;;;;;;;;;;5115736;28;20511;-66
2022/08/19 09:24:07;;;;;;;7.60;7.00;;;;;;;;;;5107539;28;20199;-66
2022/08/19 09:26:35;;;;;;;7.68;7.18;;;;;;;;;;5117797;28;20207;-66
2022/08/19 09:29:04;;;;;;;8.13;7.55;;;;;;;;;;5117317;28;20223;-66
2022/08/19 09:31:32;;;;;;;7.95;7.45;;;;;;;;;;5117231;28;20207;-66
2022/08/19 09:34:04;;;;;;;7.55;6.97;;;;;;;;;;5116483;28;20195;-66
2022/08/19 09:36:35;;;;;;;7.97;7.38;;;;;;;;;;5116186;28;20209;-66
2022/08/19 09:39:03;;;;;;;8.15;7.55;;;;;;;;;;5116224;28;20230;-66
2022/08/19 09:41:31;;;;;;;7.32;6.82;;;;;;;;;;5115411;28;20203;-66
2022/08/19 09:43:59;;;;;;;8.43;7.82;;;;;;;;;;5115504;28;20272;-66
2022/08/19 09:46:27;;;;;;;8.38;7.68;;;;;;;;;;5116164;28;20203;-66
2022/08/19 09:48:56;;;;;;;8.15;7.55;;;;;;;;;;5115857;28;20541;-66
2022/08/19 09:51:28;;;;;;;8.30;7.55;;;;;;;;;;5115906;28;20198;-66
2022/08/19 09:53:57;;;;;;;8.40;7.80;;;;;;;;;;5115604;28;20785;-66
2022/08/19 09:56:24;;;;;;;8.40;7.70;;;;;;;;;;5116041;28;20228;-65
2022/08/19 09:58:51;;;;;;;9.02;8.15;;;;;;;;;;5115539;28;20226;-65
2022/08/19 10:01:19;;;;;;;8.75;8.05;;;;;;;;;;5116293;28;20267;-65
2022/08/19 10:03:49;;;;;;;8.40;7.63;;;;;;;;;;5117113;28;20523;-65
2022/08/19 10:06:17;;;;;;;8.85;8.15;;;;;;;;;;5116063;28;20303;-65
2022/08/19 10:08:46;;;;;;;8.98;8.27;;;;;;;;;;5116115;28;20431;-65
2022/08/19 10:11:15;;;;;;;8.30;7.70;;;;;;;;;;5115179;28;20214;-65
2022/08/19 10:13:43;;;;;;;8.48;7.78;;;;;;;;;;5116264;28;20205;-65
2022/08/19 10:16:12;;;;;;;8.57;7.97;;;;;;;;;;5115554;28;20493;-65
2022/08/19 10:18:42;;;;;;;9.35;8.55;;;;;;;;;;5115450;28;20565;-65
2022/08/19 10:21:11;;;;;;;8.18;7.57;;;;;;;;;;5115991;28;20207;-65
2022/08/19 10:23:39;;;;;;;8.10;7.40;;;;;;;;;;5115145;28;20610;-66
2022/08/19 10:26:08;;;;;;;7.93;7.32;;;;;;;;;;5115357;28;20371;-66
2022/08/19 10:28:37;;;;;;;8.00;7.40;;;;;;;;;;5115182;28;20265;-65
2022/08/19 10:31:07;;;;;;;8.00;7.30;;;;;;;;;;5115349;28;20234;-65
2022/08/19 10:33:35;;;;;;;7.68;7.07;;;;;;;;;;5115252;28;20207;-65
2022/08/19 10:36:04;;;;;;;7.70;7.10;;;;;;;;;;5114909;28;20660;-65
2022/08/19 10:38:33;;;;;;;7.82;7.25;;;;;;;;;;5115632;28;20349;-65
2022/08/19 10:41:10;;;;;;;7.80;7.30;;;;;;;;;;5114295;28;20198;-65
2022/08/19 10:43:39;;;;;;;7.78;7.18;;;;;;;;;;5115890;28;20201;-65
2022/08/19 10:46:06;;;;;;;7.88;7.35;;;;;;;;;;5112789;28;20195;-65
2022/08/19 10:48:34;;;;;;;8.52;7.78;;;;;;;;;;5094866;28;20199;-65
2022/08/19 10:53:46;;;;;;;7.88;7.18;;;;;;;;;;5094357;28;20391;-65
2022/08/19 10:59:03;;;;;;;8.20;7.60;;;;;;;;;;5094356;28;20219;-65
2022/08/19 11:01:30;;;;;;;7.50;6.93;;;;;;;;;;5094904;28;20292;-65
2022/08/19 11:03:58;;;;;;;8.00;7.40;;;;;;;;;;5107263;28;20604;-66
2022/08/19 11:06:26;;;;;;;7.45;6.95;;;;;;;;;;5095071;28;20204;-65
2022/08/19 11:08:54;;;;;;;7.82;7.22;;;;;;;;;;5094480;28;20219;-66
2022/08/19 11:11:23;;;;;;;7.68;7.07;;;;;;;;;;5094718;28;20286;-65
2022/08/19 11:13:51;;;;;;;7.78;7.18;;;;;;;;;;5094861;28;20208;-65
2022/08/19 11:16:20;;;;;;;7.93;7.32;;;;;;;;;;5095006;28;20248;-65
2022/08/19 11:18:49;;;;;;;7.60;7.10;;;;;;;;;;5093731;28;20285;-65
2022/08/19 11:21:18;;;;;;;7.53;7.03;;;;;;;;;;5094540;28;20647;-65
2022/08/19 11:23:47;;;;;;;7.40;6.90;;;;;;;;;;5094945;28;20296;-65
2022/08/19 11:26:15;;;;;;;7.90;7.30;;;;;;;;;;5093559;28;20295;-66
2022/08/19 11:28:44;;;;;;;7.35;6.82;;;;;;;;;;5096142;28;20245;-66
2022/08/19 11:31:12;;;;;;;7.15;6.65;;;;;;;;;;5112640;28;20199;-65
2022/08/19 11:33:40;;;;;;;7.90;7.30;;;;;;;;;;5113570;28;20210;-65
2022/08/19 11:36:08;;;;;;;7.20;6.70;;;;;;;;;;5113501;28;20203;-65
2022/08/19 11:38:35;;;;;;;7.35;6.85;;;;;;;;;;5114098;28;20295;-65
2022/08/19 11:41:03;;;;;;;7.38;6.88;;;;;;;;;;5112538;28;20213;-65
2022/08/19 11:43:31;;;;;;;6.38;5.93;;;;;;;;;;5113485;28;20198;-65
2022/08/19 11:46:00;;;;;;;7.35;6.85;;;;;;;;;;5113752;28;20594;-65
2022/08/19 11:48:27;;;;;;;7.15;6.65;;;;;;;;;;5114385;28;20199;-65
2022/08/19 11:50:56;;;;;;;7.05;6.47;;;;;;;;;;5114179;28;20207;-65
2022/08/19 11:53:23;;;;;;;7.18;6.68;;;;;;;;;;5112761;28;20648;-65
2022/08/19 11:55:52;;;;;;;6.28;5.82;;;;;;;;;;5111318;28;20611;-65
2022/08/19 11:58:19;;;;;;;6.93;6.43;;;;;;;;;;5112604;28;20579;-65
2022/08/19 12:00:47;;;;;;;6.80;6.30;;;;;;;;;;5113711;28;20203;-65
2022/08/19 12:03:16;;;;;;;6.88;6.38;;;;;;;;;;5114466;28;20199;-65
2022/08/19 12:05:43;;;;;;;6.82;6.32;;;;;;;;;;5114488;28;20214;-65
2022/08/19 12:08:12;;;;;;;6.60;6.13;;;;;;;;;;5113926;28;20210;-65
2022/08/19 12:10:40;;;;;;;6.88;6.38;;;;;;;;;;5113768;28;20195;-65
2022/08/19 12:13:08;;;;;;;6.47;6.07;;;;;;;;;;5113251;28;20199;-65
2022/08/19 12:15:36;;;;;;;6.47;6.00;;;;;;;;;;5113653;28;20211;-65
2022/08/19 12:18:05;;;;;;;6.65;6.20;;;;;;;;;;5113628;28;20223;-65
2022/08/19 12:20:35;;;;;;;6.47;5.97;;;;;;;;;;5114784;28;20202;-65
2022/08/19 12:23:03;;;;;;;6.05;5.65;;;;;;;;;;5113397;28;20203;-66
2022/08/19 12:25:30;;;;;;;5.90;5.50;;;;;;;;;;5112685;28;20199;-65
2022/08/19 12:27:58;;;;;;;5.90;5.50;;;;;;;;;;5113055;28;20290;-65
2022/08/19 12:30:25;;;;;;;6.22;5.82;;;;;;;;;;5112458;28;20234;-65
2022/08/19 12:32:53;;;;;;;6.32;5.93;;;;;;;;;;5113751;28;20545;-65
2022/08/19 12:35:20;;;;;;;5.82;5.43;;;;;;;;;;5113617;28;20210;-65
2022/08/19 12:37:49;;;;;;;5.47;5.10;;;;;;;;;;5113353;28;20845;-65
2022/08/19 12:40:18;;;;;;;5.70;5.30;;;;;;;;;;5113897;28;20267;-65
2022/08/19 12:42:46;;;;;;;5.65;5.25;;;;;;;;;;5113417;28;20203;-65
2022/08/19 12:45:15;;;;;;;5.03;4.72;;;;;;;;;;5113595;28;20214;-65
2022/08/19 12:47:43;;;;;;;5.72;5.32;;;;;;;;;;5113961;28;20202;-66
2022/08/19 12:50:10;;;;;;;5.60;5.20;;;;;;;;;;5118007;28;20300;-66
2022/08/19 12:52:38;;;;;;;5.55;5.15;;;;;;;;;;5115944;28;20695;-66
2022/08/19 12:55:08;;;;;;;5.25;4.95;;;;;;;;;;5116940;28;20284;-65
2022/08/19 12:57:36;;;;;;;5.45;5.05;;;;;;;;;;5117007;28;20213;-66
2022/08/19 13:00:07;;;;;;;5.20;4.90;;;;;;;;;;5116812;28;20310;-66
2022/08/19 13:02:36;;;;;;;5.95;5.55;;;;;;;;;;5117356;28;20203;-65
2022/08/19 13:05:03;;;;;;;5.45;5.05;;;;;;;;;;5116186;28;20238;-66
2022/08/19 13:07:30;;;;;;;5.30;5.00;;;;;;;;;;5115819;28;20206;-66
2022/08/19 13:09:58;;;;;;;5.20;4.90;;;;;;;;;;5116773;28;20203;-65
2022/08/19 13:12:27;;;;;;;4.65;4.35;;;;;;;;;;5115776;28;20228;-66
2022/08/19 13:14:54;;;;;;;5.30;5.00;;;;;;;;;;5116008;28;20199;-65
2022/08/19 13:17:22;;;;;;;4.68;4.38;;;;;;;;;;5115861;28;20203;-65
2022/08/19 13:19:50;;;;;;;5.22;4.93;;;;;;;;;;5110887;28;20226;-65
2022/08/19 13:22:18;;;;;;;5.10;4.70;;;;;;;;;;5095556;28;20640;-65
2022/08/19 13:24:45;;;;;;;5.25;4.90;;;;;;;;;;5096012;28;20208;-66
2022/08/19 13:27:13;;;;;;;5.18;4.88;;;;;;;;;;5096907;28;20268;-65
2022/08/19 13:35:12;;;;;;;4.70;4.40;;;;;;;;;;5116171;28;20255;-65
2022/08/19 13:37:43;;;;;;;4.75;4.45;;;;;;;;;;5115905;28;20586;-65
2022/08/19 13:40:12;;;;;;;4.78;4.47;;;;;;;;;;5116904;28;20230;-65
2022/08/19 13:42:39;;;;;;;4.88;4.57;;;;;;;;;;5116115;28;20452;-65
2022/08/19 13:45:09;;;;;;;4.95;4.65;;;;;;;;;;5117016;28;20203;-65
2022/08/19 13:47:42;;;;;;;5.18;4.88;;;;;;;;;;5115835;28;20206;-65
2022/08/19 13:50:11;;;;;;;4.47;4.18;;;;;;;;;;5115934;28;20192;-65
2022/08/19 13:52:39;;;;;;;4.80;4.50;;;;;;;;;;5115024;28;20205;-65
2022/08/19 13:55:06;;;;;;;4.88;4.57;;;;;;;;;;5099546;28;20208;-65
2022/08/19 13:57:33;;;;;;;4.97;4.68;;;;;;;;;;5095857;28;20207;-65
2022/08/19 14:00:01;;;;;;;4.40;4.10;;;;;;;;;;5095103;28;20219;-65
2022/08/19 14:02:30;;;;;;;5.10;4.80;;;;;;;;;;5095243;28;20203;-65
2022/08/19 14:04:57;;;;;;;4.68;4.38;;;;;;;;;;5095334;28;20207;-65
2022/08/19 14:07:25;;;;;;;4.50;4.20;;;;;;;;;;5096267;28;20261;-65
2022/08/19 14:09:52;;;;;;;4.47;4.18;;;;;;;;;;5095856;28;20199;-65
2022/08/19 14:12:20;;;;;;;4.60;4.30;;;;;;;;;;5095392;28;20211;-65
2022/08/19 14:14:48;;;;;;;4.50;4.20;;;;;;;;;;5104517;28;20199;-65
2022/08/19 14:17:15;;;;;;;4.60;4.30;;;;;;;;;;5116039;28;20203;-65
2022/08/19 14:19:44;;;;;;;4.20;4.00;;;;;;;;;;5115707;28;20626;-65
2022/08/19 14:22:11;;;;;;;4.35;4.15;;;;;;;;;;5115850;28;20203;-65
2022/08/19 14:24:39;;;;;;;4.78;4.47;;;;;;;;;;5116282;28;20263;-65
2022/08/19 14:27:06;;;;;;;4.53;4.22;;;;;;;;;;5115384;28;20273;-65
2022/08/19 14:29:34;;;;;;;4.50;4.20;;;;;;;;;;5115685;28;20234;-65
2022/08/19 14:32:01;;;;;;;4.72;4.43;;;;;;;;;;5115350;28;20256;-65
2022/08/19 14:34:31;;;;;;;4.82;4.53;;;;;;;;;;5115849;28;20199;-65
2022/08/19 14:36:59;;;;;;;4.70;4.40;;;;;;;;;;5115166;28;20271;-65
2022/08/19 14:39:27;;;;;;;4.68;4.38;;;;;;;;;;5114932;28;20226;-65
2022/08/19 14:41:54;;;;;;;4.60;4.30;;;;;;;;;;5115182;28;20255;-65
2022/08/19 14:44:22;;;;;;;4.40;4.10;;;;;;;;;;5115750;28;20760;-65
2022/08/19 14:46:50;;;;;;;4.50;4.20;;;;;;;;;;5114489;28;20198;-65
2022/08/19 14:49:18;;;;;;;4.72;4.40;;;;;;;;;;5115187;28;20313;-65
2022/08/19 14:51:46;;;;;;;4.75;4.45;;;;;;;;;;5114614;28;20567;-65
2022/08/19 14:54:15;;;;;;;4.15;3.95;;;;;;;;;;5115029;28;20298;-65
2022/08/19 14:56:43;;;;;;;4.45;4.15;;;;;;;;;;5114971;28;20256;-65
2022/08/19 14:59:10;;;;;;;5.10;4.70;;;;;;;;;;5113897;28;20261;-65
2022/08/19 15:01:37;;;;;;;4.47;4.18;;;;;;;;;;5114202;28;20259;-65
2022/08/19 15:04:05;;;;;;;4.40;4.10;;;;;;;;;;5114174;28;20203;-65
2022/08/19 15:06:32;;;;;;;4.55;4.25;;;;;;;;;;5114952;28;20203;-66
2022/08/19 15:09:00;;;;;;;4.22;3.92;;;;;;;;;;5113323;28;20198;-65
2022/08/19 15:11:32;;;;;;;4.40;4.10;;;;;;;;;;5113147;28;20213;-65
2022/08/19 15:14:01;;;;;;;4.50;4.20;;;;;;;;;;5114888;28;20222;-65